Time;durP1;ratioP1;P1;durP2;ratioP2;P2;SDS_P1;SDS_P2;PMS_P1;PMS_P2;Temp;Humidity;BMP_temperature;BMP_pressure;BME280_temperature;BME280_humidity;BME280_pressure;Samples;Min_cycle;Max_cycle;Signal;HPM_P1;HPM_P2
2022/10/05 00:01:28;;;;;;;18.00;11.07;;;;;;;;;;5080932;28;20036;-82
2022/10/05 00:04:08;;;;;;;14.77;9.90;;;;;;;;;;5079086;28;20028;-77
2022/10/05 00:06:34;;;;;;;14.43;9.50;;;;;;;;;;5081422;28;20028;-73
2022/10/05 00:08:59;;;;;;;22.67;16.25;;;;;;;;;;5079814;28;20028;-78
2022/10/05 00:11:25;;;;;;;23.33;17.15;;;;;;;;;;5077019;28;20046;-78
2022/10/05 00:13:51;;;;;;;27.70;19.27;;;;;;;;;;5072729;28;20043;-78
2022/10/05 00:16:18;;;;;;;27.35;20.02;;;;;;;;;;5077164;28;20027;-75
2022/10/05 00:18:52;;;;;;;29.77;20.02;;;;;;;;;;5080338;28;20035;-78
2022/10/05 00:21:22;;;;;;;29.42;17.45;;;;;;;;;;5078947;28;20347;-75
2022/10/05 00:23:48;;;;;;;25.83;17.40;;;;;;;;;;5079758;28;20606;-76
2022/10/05 00:26:23;;;;;;;21.70;15.07;;;;;;;;;;5080467;28;20122;-75
2022/10/05 00:28:49;;;;;;;18.58;11.75;;;;;;;;;;5084935;28;20035;-75
2022/10/05 00:31:25;;;;;;;16.48;10.75;;;;;;;;;;5085277;28;20028;-76
2022/10/05 00:33:50;;;;;;;16.25;10.75;;;;;;;;;;5084657;28;20084;-77
2022/10/05 00:36:16;;;;;;;21.00;13.02;;;;;;;;;;5082643;28;20036;-74
2022/10/05 00:38:42;;;;;;;21.30;12.68;;;;;;;;;;5084341;28;21067;-79
2022/10/05 00:41:14;;;;;;;17.35;10.93;;;;;;;;;;5083899;28;20059;-75
2022/10/05 00:43:42;;;;;;;15.77;11.35;;;;;;;;;;5082478;28;20384;-76
2022/10/05 00:46:17;;;;;;;12.45;10.40;;;;;;;;;;5082975;28;21391;-75
2022/10/05 00:48:42;;;;;;;12.90;10.18;;;;;;;;;;5082940;28;20040;-77
2022/10/05 00:51:15;;;;;;;10.75;8.52;;;;;;;;;;5083862;28;20028;-75
2022/10/05 00:53:41;;;;;;;10.02;8.00;;;;;;;;;;5084375;28;20032;-76
2022/10/05 00:56:12;;;;;;;24.83;15.98;;;;;;;;;;5083439;28;20032;-74
2022/10/05 00:58:56;;;;;;;12.43;8.60;;;;;;;;;;5084101;28;20036;-75
2022/10/05 01:01:22;;;;;;;15.30;11.35;;;;;;;;;;5083182;28;20032;-76
2022/10/05 01:03:57;;;;;;;11.93;10.15;;;;;;;;;;5081024;28;20097;-80
2022/10/05 01:06:23;;;;;;;9.20;7.90;;;;;;;;;;5082273;28;20020;-76
2022/10/05 01:08:48;;;;;;;7.43;6.70;;;;;;;;;;5082787;28;20030;-80
2022/10/05 01:11:16;;;;;;;8.65;6.25;;;;;;;;;;5082449;28;20036;-77
2022/10/05 01:13:45;;;;;;;9.38;6.93;;;;;;;;;;5084439;28;20031;-76
2022/10/05 01:16:13;;;;;;;8.20;6.93;;;;;;;;;;5083191;28;20031;-82
2022/10/05 01:18:39;;;;;;;13.75;8.30;;;;;;;;;;5081140;28;20343;-77
2022/10/05 01:21:19;;;;;;;10.48;8.90;;;;;;;;;;5082874;28;20016;-81
2022/10/05 01:23:47;;;;;;;8.85;6.80;;;;;;;;;;5082239;28;20028;-75
2022/10/05 01:26:22;;;;;;;18.83;12.02;;;;;;;;;;5083316;28;20120;-74
2022/10/05 01:28:54;;;;;;;14.18;9.45;;;;;;;;;;5082377;28;20024;-75
2022/10/05 01:31:19;;;;;;;8.32;6.65;;;;;;;;;;5083382;28;20024;-74
2022/10/05 01:34:01;;;;;;;6.60;5.35;;;;;;;;;;5082914;28;20478;-74
2022/10/05 01:36:29;;;;;;;10.50;6.70;;;;;;;;;;5083071;28;20432;-74
2022/10/05 01:39:10;;;;;;;9.65;7.38;;;;;;;;;;5076767;28;20425;-75
2022/10/05 01:41:56;;;;;;;7.03;5.68;;;;;;;;;;5077049;28;20028;-75
2022/10/05 01:44:35;;;;;;;5.40;4.72;;;;;;;;;;5081399;28;20044;-78
2022/10/05 01:47:19;;;;;;;82.32;67.15;;;;;;;;;;5079898;28;20083;-75
2022/10/05 01:50:10;;;;;;;103.28;72.15;;;;;;;;;;5083450;28;20102;-78
2022/10/05 01:52:39;;;;;;;142.43;62.33;;;;;;;;;;5018862;28;20528;-75
2022/10/05 01:55:16;;;;;;;64.20;30.15;;;;;;;;;;5001872;28;20081;-77
2022/10/05 01:57:59;;;;;;;51.97;25.90;;;;;;;;;;5020279;28;20040;-78
2022/10/05 02:00:25;;;;;;;9.45;6.28;;;;;;;;;;5018913;28;20049;-77
2022/10/05 02:02:55;;;;;;;18.42;11.85;;;;;;;;;;5019828;28;20044;-75
2022/10/05 02:05:30;;;;;;;32.10;20.63;;;;;;;;;;5001953;28;20029;-75
2022/10/05 02:08:25;;;;;;;17.42;11.70;;;;;;;;;;5018097;28;20516;-76
2022/10/05 02:10:54;;;;;;;25.48;22.83;;;;;;;;;;4994240;28;20099;-74
2022/10/05 02:13:38;;;;;;;28.73;20.60;;;;;;;;;;5020031;28;20041;-74
2022/10/05 02:16:07;;;;;;;38.47;24.13;;;;;;;;;;5019555;28;20041;-74
2022/10/05 02:18:35;;;;;;;43.45;38.50;;;;;;;;;;5018967;28;20029;-74
2022/10/05 02:21:01;;;;;;;29.38;23.40;;;;;;;;;;4993760;28;20810;-75
2022/10/05 02:23:30;;;;;;;19.92;14.65;;;;;;;;;;5020382;28;20154;-74
2022/10/05 02:25:57;;;;;;;13.95;11.20;;;;;;;;;;5011967;28;20021;-80
2022/10/05 02:28:34;;;;;;;15.27;10.95;;;;;;;;;;5022266;28;20072;-79
2022/10/05 02:31:03;;;;;;;11.60;9.52;;;;;;;;;;5078182;28;20028;-75
2022/10/05 02:33:30;;;;;;;18.27;14.50;;;;;;;;;;5081562;28;20114;-75
2022/10/05 02:36:22;;;;;;;11.52;8.88;;;;;;;;;;5080424;28;20773;-76
2022/10/05 02:39:02;;;;;;;8.85;7.70;;;;;;;;;;5078626;28;20036;-78
2022/10/05 02:41:52;;;;;;;56.35;39.75;;;;;;;;;;5081782;28;20050;-74
2022/10/05 02:44:23;;;;;;;13.68;10.82;;;;;;;;;;5080986;28;20530;-73
2022/10/05 02:47:03;;;;;;;9.23;7.85;;;;;;;;;;5079376;28;20048;-75
2022/10/05 02:49:40;;;;;;;12.80;8.85;;;;;;;;;;5080977;28;20039;-73
2022/10/05 02:52:10;;;;;;;13.48;8.20;;;;;;;;;;5081196;28;20036;-75
2022/10/05 02:54:35;;;;;;;;;;;;;;;;;;5080738;28;20023;-76
2022/10/05 02:57:15;;;;;;;7.87;5.90;;;;;;;;;;5082111;28;20522;-76
2022/10/05 02:59:53;;;;;;;9.65;6.22;;;;;;;;;;5079599;28;20260;-74
2022/10/05 03:02:23;;;;;;;10.73;6.88;;;;;;;;;;5070641;28;20043;-76
2022/10/05 03:04:56;;;;;;;8.00;6.20;;;;;;;;;;5080208;28;20020;-76
2022/10/05 03:07:39;;;;;;;13.57;9.40;;;;;;;;;;5081373;28;20012;-77
2022/10/05 03:10:13;;;;;;;11.32;9.18;;;;;;;;;;5080005;28;20036;-79
2022/10/05 03:12:39;;;;;;;10.02;7.88;;;;;;;;;;5081818;28;20070;-76
2022/10/05 03:15:23;;;;;;;10.18;7.50;;;;;;;;;;5081540;28;20023;-75
2022/10/05 03:17:53;;;;;;;14.20;8.07;;;;;;;;;;5080809;28;20028;-77
2022/10/05 03:20:32;;;;;;;11.88;8.50;;;;;;;;;;5082036;28;20320;-75
2022/10/05 03:22:59;;;;;;;15.40;10.77;;;;;;;;;;5077832;28;20024;-77
2022/10/05 03:25:43;;;;;;;10.80;9.60;;;;;;;;;;5074626;28;20036;-77
2022/10/05 03:28:17;;;;;;;13.43;8.60;;;;;;;;;;5082146;28;20056;-75
2022/10/05 03:30:45;;;;;;;11.05;7.35;;;;;;;;;;5080813;28;20055;-79
2022/10/05 03:33:38;;;;;;;11.40;7.93;;;;;;;;;;5078462;28;20039;-75
2022/10/05 03:36:14;;;;;;;16.10;10.93;;;;;;;;;;5081525;28;20116;-77
2022/10/05 03:38:47;;;;;;;13.23;9.15;;;;;;;;;;5079281;28;20073;-75
2022/10/05 03:41:20;;;;;;;15.98;10.63;;;;;;;;;;5067657;28;20032;-76
2022/10/05 03:43:45;;;;;;;12.40;8.50;;;;;;;;;;5074200;28;20024;-77
2022/10/05 03:46:23;;;;;;;7.30;6.60;;;;;;;;;;5071193;28;20048;-75
2022/10/05 03:48:56;;;;;;;11.43;6.95;;;;;;;;;;5079695;28;20032;-75
2022/10/05 03:51:22;;;;;;;11.32;8.02;;;;;;;;;;5077990;28;20039;-75
2022/10/05 03:53:49;;;;;;;18.90;16.25;;;;;;;;;;5080036;28;20024;-74
2022/10/05 03:56:24;;;;;;;15.50;10.68;;;;;;;;;;5075169;28;20023;-75
2022/10/05 03:58:49;;;;;;;18.65;10.88;;;;;;;;;;5072312;28;20137;-75
2022/10/05 04:01:17;;;;;;;45.10;23.27;;;;;;;;;;5072291;28;20467;-77
2022/10/05 04:03:45;;;;;;;59.92;40.97;;;;;;;;;;5081462;28;20028;-75
2022/10/05 04:06:22;;;;;;;62.05;40.92;;;;;;;;;;5066370;28;20058;-75
2022/10/05 04:08:53;;;;;;;58.78;28.77;;;;;;;;;;5071906;28;20428;-77
2022/10/05 04:11:21;;;;;;;57.58;33.45;;;;;;;;;;5070644;28;20027;-75
2022/10/05 04:13:53;;;;;;;79.45;53.22;;;;;;;;;;5081618;28;20114;-73
2022/10/05 04:16:19;;;;;;;56.97;39.00;;;;;;;;;;5083876;28;20028;-74
2022/10/05 04:18:47;;;;;;;56.17;29.08;;;;;;;;;;5083453;28;20020;-73
2022/10/05 04:21:31;;;;;;;75.20;42.40;;;;;;;;;;5074781;28;20445;-75
2022/10/05 04:24:10;;;;;;;94.50;58.58;;;;;;;;;;5069206;28;20027;-74
2022/10/05 04:26:51;;;;;;;61.58;36.65;;;;;;;;;;5073272;28;20076;-74
2022/10/05 04:29:35;;;;;;;54.05;30.98;;;;;;;;;;5083604;28;20036;-72
2022/10/05 04:32:06;;;;;;;55.75;30.92;;;;;;;;;;5083149;28;20115;-75
2022/10/05 04:34:54;;;;;;;73.28;42.88;;;;;;;;;;5083293;28;20339;-75
2022/10/05 04:37:38;;;;;;;70.10;39.80;;;;;;;;;;5053957;28;20068;-73
2022/10/05 04:40:11;;;;;;;53.05;31.20;;;;;;;;;;5076767;28;20109;-73
2022/10/05 04:42:42;;;;;;;51.88;31.65;;;;;;;;;;5069914;28;20032;-76
2022/10/05 04:45:20;;;;;;;49.05;31.15;;;;;;;;;;5082160;28;20023;-72
2022/10/05 04:47:52;;;;;;;92.30;48.30;;;;;;;;;;5074923;28;20135;-74
2022/10/05 04:50:23;;;;;;;106.25;68.45;;;;;;;;;;5079915;28;20032;-72
2022/10/05 04:52:52;;;;;;;62.35;39.60;;;;;;;;;;5082558;28;20760;-73
2022/10/05 04:55:17;;;;;;;40.95;28.92;;;;;;;;;;5082108;28;20704;-76
2022/10/05 04:57:42;;;;;;;31.60;24.73;;;;;;;;;;5083955;28;20036;-73
2022/10/05 05:00:20;;;;;;;31.08;25.02;;;;;;;;;;5083119;28;20034;-72
2022/10/05 05:02:55;;;;;;;29.35;22.92;;;;;;;;;;5083698;28;20352;-77
2022/10/05 05:05:20;;;;;;;25.45;21.13;;;;;;;;;;5083618;28;20335;-75
2022/10/05 05:08:05;;;;;;;22.10;17.15;;;;;;;;;;5083180;28;20032;-75
2022/10/05 05:10:37;;;;;;;30.13;16.80;;;;;;;;;;5083660;28;20451;-72
2022/10/05 05:13:10;;;;;;;44.75;32.42;;;;;;;;;;5081177;28;20032;-70
2022/10/05 05:15:36;;;;;;;60.28;45.60;;;;;;;;;;5071343;28;20028;-77
2022/10/05 05:18:10;;;;;;;60.70;45.75;;;;;;;;;;5076437;28;20084;-72
2022/10/05 05:20:36;;;;;;;67.32;48.65;;;;;;;;;;5068540;28;20081;-76
2022/10/05 05:23:20;;;;;;;138.82;92.53;;;;;;;;;;5070637;28;20425;-75
2022/10/05 05:26:04;;;;;;;79.40;52.55;;;;;;;;;;5079179;28;20043;-75
2022/10/05 05:28:48;;;;;;;118.88;72.03;;;;;;;;;;5077085;28;20024;-76
2022/10/05 05:31:26;;;;;;;313.42;201.73;;;;;;;;;;5069272;28;20028;-73
2022/10/05 05:33:51;;;;;;;65.50;49.50;;;;;;;;;;5069040;28;20035;-76
2022/10/05 05:36:32;;;;;;;62.60;52.75;;;;;;;;;;5073766;28;20047;-77
2022/10/05 05:39:04;;;;;;;50.92;38.53;;;;;;;;;;5083198;28;20427;-75
2022/10/05 05:41:35;;;;;;;50.33;35.05;;;;;;;;;;5083358;28;20062;-73
2022/10/05 05:44:01;;;;;;;47.03;33.03;;;;;;;;;;5071817;28;20032;-75
2022/10/05 05:46:35;;;;;;;52.35;33.58;;;;;;;;;;5081077;28;20055;-74
2022/10/05 05:49:06;;;;;;;59.65;44.75;;;;;;;;;;5083081;28;20020;-76
2022/10/05 05:51:37;;;;;;;73.22;55.22;;;;;;;;;;5081561;28;20489;-75
2022/10/05 05:54:14;;;;;;;80.70;65.57;;;;;;;;;;5082440;28;20028;-74
2022/10/05 05:57:00;;;;;;;72.63;55.90;;;;;;;;;;5077551;28;21068;-74
2022/10/05 05:59:31;;;;;;;81.72;57.78;;;;;;;;;;5040424;28;20101;-75
2022/10/05 06:02:04;;;;;;;79.18;61.63;;;;;;;;;;5081605;28;20023;-73
2022/10/05 06:04:43;;;;;;;53.50;38.30;;;;;;;;;;5080586;28;20518;-74
2022/10/05 06:07:14;;;;;;;44.08;33.40;;;;;;;;;;5081553;28;20440;-76
2022/10/05 06:09:43;;;;;;;36.40;30.30;;;;;;;;;;5080790;28;20343;-74
2022/10/05 06:12:13;;;;;;;19.77;17.70;;;;;;;;;;5081510;28;20178;-72
2022/10/05 06:14:57;;;;;;;14.50;12.82;;;;;;;;;;5081579;28;20123;-73
2022/10/05 06:17:31;;;;;;;11.35;10.30;;;;;;;;;;5082603;28;20028;-73
2022/10/05 06:19:58;;;;;;;13.63;10.60;;;;;;;;;;5081577;28;20067;-73
2022/10/05 06:22:23;;;;;;;12.05;10.85;;;;;;;;;;5081438;28;20371;-73
2022/10/05 06:24:48;;;;;;;15.82;11.85;;;;;;;;;;5081111;28;20024;-73
2022/10/05 06:27:23;;;;;;;15.48;13.20;;;;;;;;;;5071774;28;20042;-73
2022/10/05 06:30:03;;;;;;;15.98;12.52;;;;;;;;;;5080155;28;20385;-76
2022/10/05 06:32:34;;;;;;;10.85;9.65;;;;;;;;;;5081702;28;20058;-74
2022/10/05 06:35:02;;;;;;;13.02;9.43;;;;;;;;;;5080538;28;20028;-73
2022/10/05 06:37:51;;;;;;;14.40;11.90;;;;;;;;;;5081600;28;20489;-74
2022/10/05 06:40:34;;;;;;;9.88;8.85;;;;;;;;;;5064916;28;20128;-76
2022/10/05 06:43:07;;;;;;;14.20;11.95;;;;;;;;;;5081566;28;20027;-73
2022/10/05 06:45:47;;;;;;;14.50;12.32;;;;;;;;;;5079993;28;20040;-73
2022/10/05 06:48:24;;;;;;;12.73;10.07;;;;;;;;;;5079531;28;21015;-75
2022/10/05 06:50:57;;;;;;;16.58;13.20;;;;;;;;;;5080925;28;20032;-74
2022/10/05 06:53:22;;;;;;;11.38;8.85;;;;;;;;;;5080433;28;20079;-75
2022/10/05 06:55:47;;;;;;;10.23;8.55;;;;;;;;;;5080279;28;20028;-74
2022/10/05 06:58:30;;;;;;;14.63;10.00;;;;;;;;;;5081158;28;20328;-74
2022/10/05 07:01:02;;;;;;;11.73;8.45;;;;;;;;;;5080968;28;20020;-74
2022/10/05 07:03:45;;;;;;;11.27;8.98;;;;;;;;;;5080622;28;20028;-74
2022/10/05 07:06:29;;;;;;;17.40;10.13;;;;;;;;;;5079268;28;20082;-75
2022/10/05 07:08:54;;;;;;;11.55;8.50;;;;;;;;;;5080331;28;20031;-74
2022/10/05 07:11:40;;;;;;;9.73;7.47;;;;;;;;;;5080514;28;20032;-74
2022/10/05 07:14:11;;;;;;;12.88;8.00;;;;;;;;;;5080570;28;20048;-74
2022/10/05 07:16:44;;;;;;;9.07;7.43;;;;;;;;;;5080985;28;20369;-75
2022/10/05 07:19:28;;;;;;;10.95;9.68;;;;;;;;;;5079862;28;20016;-76
2022/10/05 07:21:56;;;;;;;25.80;18.08;;;;;;;;;;5080258;28;20141;-75
2022/10/05 07:24:32;;;;;;;15.93;12.30;;;;;;;;;;5080101;28;20035;-75
2022/10/05 07:27:12;;;;;;;11.35;8.68;;;;;;;;;;5079630;28;20031;-74
2022/10/05 07:29:49;;;;;;;17.80;14.10;;;;;;;;;;5079787;28;20028;-74
2022/10/05 07:32:27;;;;;;;11.07;8.52;;;;;;;;;;5080168;28;20466;-78
2022/10/05 07:37:53;;;;;;;8.55;6.57;;;;;;;;;;5080335;28;20043;-75
2022/10/05 07:37:58;;;;;;;71.10;50.30;;;;;;;;;;5079999;28;20031;-75
2022/10/05 07:40:29;;;;;;;113.22;77.82;;;;;;;;;;5080525;28;20036;-77
2022/10/05 07:43:14;;;;;;;24.15;16.90;;;;;;;;;;5080139;28;20020;-76
2022/10/05 07:45:54;;;;;;;13.32;8.00;;;;;;;;;;5079710;28;20043;-75
2022/10/05 07:48:21;;;;;;;7.88;5.97;;;;;;;;;;5080844;28;20028;-74
2022/10/05 07:50:55;;;;;;;13.93;10.95;;;;;;;;;;5079640;28;20032;-75
2022/10/05 07:53:21;;;;;;;7.95;7.15;;;;;;;;;;5080570;28;20381;-77
2022/10/05 07:55:50;;;;;;;6.90;4.97;;;;;;;;;;5079724;28;20020;-75
2022/10/05 07:58:22;;;;;;;6.03;5.43;;;;;;;;;;5079665;28;20055;-75
2022/10/05 08:00:47;;;;;;;8.98;6.65;;;;;;;;;;5078887;28;20475;-75
2022/10/05 08:03:15;;;;;;;11.13;8.43;;;;;;;;;;5079986;28;20062;-76
2022/10/05 08:05:41;;;;;;;10.05;7.03;;;;;;;;;;5078846;28;20023;-73
2022/10/05 08:08:09;;;;;;;14.85;8.65;;;;;;;;;;5080705;28;20066;-75
2022/10/05 08:10:44;;;;;;;11.48;8.25;;;;;;;;;;5080472;28;20058;-73
2022/10/05 08:13:15;;;;;;;33.13;24.13;;;;;;;;;;5079241;28;20032;-74
2022/10/05 08:15:41;;;;;;;9.55;7.45;;;;;;;;;;5081010;28;20028;-73
2022/10/05 08:18:10;;;;;;;15.07;10.88;;;;;;;;;;5079958;28;20020;-76
2022/10/05 08:20:46;;;;;;;7.45;5.32;;;;;;;;;;5080816;28;20436;-75
2022/10/05 08:23:11;;;;;;;5.93;5.20;;;;;;;;;;5080353;28;20029;-74
2022/10/05 08:25:37;;;;;;;5.15;3.80;;;;;;;;;;5081137;28;20034;-76
2022/10/05 08:28:21;;;;;;;5.63;5.00;;;;;;;;;;5080421;28;20016;-75
2022/10/05 08:30:53;;;;;;;6.25;4.80;;;;;;;;;;5079398;28;20027;-74
2022/10/05 08:33:20;;;;;;;6.53;4.97;;;;;;;;;;5080115;28;20375;-75
2022/10/05 08:36:17;;;;;;;3.13;2.20;;;;;;;;;;5079835;28;20066;-75
2022/10/05 08:38:43;;;;;;;4.53;2.60;;;;;;;;;;5037417;28;20045;-78
2022/10/05 08:41:27;;;;;;;17.25;14.25;;;;;;;;;;5036962;28;20039;-75
2022/10/05 08:44:01;;;;;;;6.88;4.55;;;;;;;;;;5036651;28;20421;-74
2022/10/05 08:46:26;;;;;;;10.40;8.52;;;;;;;;;;5037179;28;20056;-75
2022/10/05 08:48:52;;;;;;;12.57;8.73;;;;;;;;;;5040785;28;21096;-76
2022/10/05 08:51:25;;;;;;;7.30;3.45;;;;;;;;;;5041661;28;20518;-76
2022/10/05 08:53:54;;;;;;;3.95;2.58;;;;;;;;;;5041388;28;20040;-76
2022/10/05 08:56:22;;;;;;;7.22;4.18;;;;;;;;;;5041611;28;20072;-75
2022/10/05 08:58:50;;;;;;;6.40;3.97;;;;;;;;;;5041867;28;20025;-76
2022/10/05 09:01:21;;;;;;;8.93;6.00;;;;;;;;;;5041054;28;20098;-75
2022/10/05 09:04:05;;;;;;;9.45;5.45;;;;;;;;;;5035033;28;20035;-75
2022/10/05 09:06:49;;;;;;;7.03;3.78;;;;;;;;;;5037656;28;20341;-75
2022/10/05 09:09:26;;;;;;;5.05;2.83;;;;;;;;;;5041218;28;20036;-77
2022/10/05 09:11:51;;;;;;;3.20;2.60;;;;;;;;;;5041833;28;20072;-76
2022/10/05 09:14:35;;;;;;;3.15;2.10;;;;;;;;;;5060888;28;20051;-75
2022/10/05 09:17:00;;;;;;;5.93;4.70;;;;;;;;;;5083486;28;20028;-76
2022/10/05 09:19:35;;;;;;;3.92;2.38;;;;;;;;;;5083516;28;20069;-78
2022/10/05 09:22:20;;;;;;;6.50;1.80;;;;;;;;;;5083200;28;20028;-76
2022/10/05 09:25:04;;;;;;;2.45;1.85;;;;;;;;;;5083575;28;20031;-76
2022/10/05 09:27:35;;;;;;;3.53;2.20;;;;;;;;;;5084022;28;21051;-76
2022/10/05 09:30:00;;;;;;;2.50;1.58;;;;;;;;;;5082884;28;20039;-76
2022/10/05 09:32:26;;;;;;;2.58;2.38;;;;;;;;;;5082837;28;20040;-77
2022/10/05 09:35:14;;;;;;;3.90;1.85;;;;;;;;;;5082963;28;20020;-75
2022/10/05 09:37:49;;;;;;;49.67;25.58;;;;;;;;;;5083404;28;20032;-75
2022/10/05 09:40:33;;;;;;;16.65;9.55;;;;;;;;;;5083324;28;20035;-76
2022/10/05 09:43:24;;;;;;;52.65;25.58;;;;;;;;;;5083096;28;20062;-75
2022/10/05 09:45:56;;;;;;;38.45;23.58;;;;;;;;;;5075894;28;20048;-75
2022/10/05 09:48:42;;;;;;;98.82;59.88;;;;;;;;;;5081668;28;20043;-74
2022/10/05 09:51:39;;;;;;;7.22;5.05;;;;;;;;;;5050804;28;20131;-74
2022/10/05 09:54:22;;;;;;;4.88;2.60;;;;;;;;;;5083532;28;20054;-75
2022/10/05 09:57:03;;;;;;;2.97;1.55;;;;;;;;;;5081815;28;20032;-78
2022/10/05 09:59:46;;;;;;;4.45;2.30;;;;;;;;;;5082052;28;20024;-75
2022/10/05 10:02:13;;;;;;;5.55;3.05;;;;;;;;;;5080790;28;20012;-76
2022/10/05 10:04:44;;;;;;;4.38;2.67;;;;;;;;;;5081103;28;20818;-76
2022/10/05 10:07:36;;;;;;;29.63;18.65;;;;;;;;;;5082925;28;20069;-77
2022/10/05 10:10:20;;;;;;;10.10;5.80;;;;;;;;;;5081478;28;20493;-78
2022/10/05 10:12:51;;;;;;;24.95;18.50;;;;;;;;;;5082218;28;20047;-77
2022/10/05 10:15:37;;;;;;;18.20;12.85;;;;;;;;;;5082621;28;20020;-76
2022/10/05 10:18:02;;;;;;;31.58;24.58;;;;;;;;;;5082531;28;20093;-75
2022/10/05 10:20:31;;;;;;;7.82;4.80;;;;;;;;;;5082536;28;20040;-77
2022/10/05 10:23:11;;;;;;;2.72;1.70;;;;;;;;;;5082146;28;20020;-76
2022/10/05 10:25:55;;;;;;;2.58;2.38;;;;;;;;;;5081958;28;20034;-77
2022/10/05 10:28:27;;;;;;;5.38;4.20;;;;;;;;;;5081138;28;20054;-77
2022/10/05 10:31:10;;;;;;;32.78;27.13;;;;;;;;;;5080731;28;20027;-76
2022/10/05 10:33:54;;;;;;;6.68;5.85;;;;;;;;;;5080183;28;20119;-77
2022/10/05 10:36:25;;;;;;;2.60;1.90;;;;;;;;;;5080404;28;20031;-80
2022/10/05 10:39:03;;;;;;;9.65;8.45;;;;;;;;;;5080745;28;20443;-75
2022/10/05 10:41:41;;;;;;;5.45;4.22;;;;;;;;;;5081339;28;20105;-75
2022/10/05 10:44:25;;;;;;;3.78;2.55;;;;;;;;;;5081274;28;20020;-76
2022/10/05 10:47:15;;;;;;;4.00;3.60;;;;;;;;;;5082466;28;20055;-74
2022/10/05 10:49:52;;;;;;;4.57;4.18;;;;;;;;;;5079882;28;20404;-76
2022/10/05 10:52:34;;;;;;;2.08;1.15;;;;;;;;;;5080797;28;20059;-77
2022/10/05 10:55:23;;;;;;;1.92;1.17;;;;;;;;;;5081864;28;20704;-77
2022/10/05 10:58:01;;;;;;;6.45;2.97;;;;;;;;;;5081958;28;20020;-76
2022/10/05 11:00:40;;;;;;;1.50;1.40;;;;;;;;;;5082059;28;20040;-74
2022/10/05 11:03:12;;;;;;;2.08;1.38;;;;;;;;;;5081649;28;20408;-77
2022/10/05 11:06:07;;;;;;;2.42;1.00;;;;;;;;;;5082243;28;20060;-75
2022/10/05 11:08:58;;;;;;;2.80;1.10;;;;;;;;;;5080565;28;20066;-76
2022/10/05 11:11:26;;;;;;;2.45;1.27;;;;;;;;;;5038840;28;20049;-76
2022/10/05 11:14:01;;;;;;;8.15;6.45;;;;;;;;;;5037387;28;20041;-78
2022/10/05 11:16:45;;;;;;;5.55;2.20;;;;;;;;;;5038913;28;20049;-79
2022/10/05 11:19:29;;;;;;;2.45;1.77;;;;;;;;;;5039706;28;20514;-79
2022/10/05 11:22:13;;;;;;;1.77;1.00;;;;;;;;;;5039252;28;20033;-77
2022/10/05 11:24:41;;;;;;;3.30;1.48;;;;;;;;;;5039318;28;20098;-77
2022/10/05 11:27:25;;;;;;;2.20;1.10;;;;;;;;;;5037634;28;20051;-76
2022/10/05 11:30:09;;;;;;;3.28;2.53;;;;;;;;;;5038924;28;20079;-74
2022/10/05 11:32:47;;;;;;;2.65;2.40;;;;;;;;;;5039219;28;20044;-75
2022/10/05 11:35:27;;;;;;;2.28;1.90;;;;;;;;;;5038943;28;20172;-75
2022/10/05 11:38:11;;;;;;;2.95;1.42;;;;;;;;;;5038885;28;20033;-77
2022/10/05 11:40:41;;;;;;;7.45;4.45;;;;;;;;;;5039221;28;20455;-75
2022/10/05 11:43:15;;;;;;;3.08;1.90;;;;;;;;;;5032129;28;20051;-75
2022/10/05 11:45:49;;;;;;;2.53;2.00;;;;;;;;;;5025708;28;20045;-75
2022/10/05 11:48:21;;;;;;;6.65;4.35;;;;;;;;;;5045715;28;20541;-77
2022/10/05 11:50:55;;;;;;;11.00;9.90;;;;;;;;;;5071626;28;20024;-75
2022/10/05 11:53:25;;;;;;;5.03;4.20;;;;;;;;;;5081092;28;20040;-74
2022/10/05 11:56:09;;;;;;;5.63;4.47;;;;;;;;;;5080887;28;20045;-74
2022/10/05 11:58:38;;;;;;;2.05;1.48;;;;;;;;;;5081459;28;20044;-74
2022/10/05 12:01:16;;;;;;;2.90;2.03;;;;;;;;;;5081601;28;20039;-74
2022/10/05 12:04:02;;;;;;;2.22;2.03;;;;;;;;;;5080288;28;20038;-74
2022/10/05 12:06:27;;;;;;;3.35;2.80;;;;;;;;;;5080561;28;20032;-76
2022/10/05 12:08:53;;;;;;;3.08;2.65;;;;;;;;;;5076123;28;20031;-79
2022/10/05 12:11:45;;;;;;;15.75;11.60;;;;;;;;;;5075167;28;20031;-75
2022/10/05 12:14:16;;;;;;;3.33;2.88;;;;;;;;;;5074913;28;20115;-78
2022/10/05 12:16:41;;;;;;;13.95;10.63;;;;;;;;;;5072248;28;20024;-74
2022/10/05 12:19:13;;;;;;;2.08;1.63;;;;;;;;;;5072739;28;20070;-74
2022/10/05 12:21:50;;;;;;;4.90;3.10;;;;;;;;;;5081243;28;20024;-75
2022/10/05 12:24:34;;;;;;;4.65;3.38;;;;;;;;;;5084549;28;20032;-75
2022/10/05 12:26:59;;;;;;;8.95;8.05;;;;;;;;;;5083429;28;20020;-74
2022/10/05 12:29:27;;;;;;;13.73;10.35;;;;;;;;;;5085004;28;20036;-74
2022/10/05 12:32:07;;;;;;;45.05;31.05;;;;;;;;;;5084514;28;20335;-77
2022/10/05 12:34:33;;;;;;;24.13;17.30;;;;;;;;;;5083461;28;20034;-73
2022/10/05 12:36:58;;;;;;;10.20;7.32;;;;;;;;;;5078170;28;20067;-74
2022/10/05 12:39:42;;;;;;;1.90;1.73;;;;;;;;;;5076848;28;20034;-72
2022/10/05 12:42:07;;;;;;;0.93;0.93;;;;;;;;;;5068116;28;20028;-74
2022/10/05 12:44:41;;;;;;;2.83;2.55;;;;;;;;;;5069165;28;20046;-75
2022/10/05 12:47:25;;;;;;;5.95;4.55;;;;;;;;;;5068519;28;20051;-72
2022/10/05 12:50:15;;;;;;;2.50;2.00;;;;;;;;;;5070065;28;20057;-74
2022/10/05 12:52:43;;;;;;;2.03;1.10;;;;;;;;;;5069941;28;20024;-74
2022/10/05 12:55:20;;;;;;;2.10;1.65;;;;;;;;;;5070682;28;20427;-71
2022/10/05 12:57:55;;;;;;;1.58;1.48;;;;;;;;;;5071218;28;20059;-73
2022/10/05 13:00:20;;;;;;;1.58;1.48;;;;;;;;;;5079284;28;20114;-75
2022/10/05 13:02:49;;;;;;;3.92;0.90;;;;;;;;;;5069745;28;20412;-76
2022/10/05 13:05:15;;;;;;;;;;;;;;;;;;5067545;28;20720;-76
2022/10/05 13:07:40;;;;;;;1.03;0.93;;;;;;;;;;5068504;28;19923;-74
2022/10/05 13:10:21;;;;;;;1.80;1.30;;;;;;;;;;5083402;28;20093;-74
2022/10/05 13:12:49;;;;;;;2.00;1.45;;;;;;;;;;5068139;28;20028;-75
2022/10/05 13:15:21;;;;;;;2.65;1.90;;;;;;;;;;5064668;28;20028;-75
2022/10/05 13:18:03;;;;;;;2.05;1.50;;;;;;;;;;5068246;28;20040;-75
2022/10/05 13:20:41;;;;;;;1.10;0.90;;;;;;;;;;5078896;28;20070;-75
2022/10/05 13:23:09;;;;;;;0.80;0.80;;;;;;;;;;5081016;28;20066;-75
2022/10/05 13:25:37;;;;;;;4.40;1.40;;;;;;;;;;5079653;28;20027;-78
2022/10/05 13:28:24;;;;;;;4.30;2.20;;;;;;;;;;5081841;28;20439;-75
2022/10/05 13:31:00;;;;;;;2.55;2.20;;;;;;;;;;5080099;28;20331;-77
2022/10/05 13:33:26;;;;;;;3.10;1.42;;;;;;;;;;5075149;28;20119;-76
2022/10/05 13:35:57;;;;;;;3.05;1.70;;;;;;;;;;5071111;28;20116;-75
2022/10/05 13:38:33;;;;;;;2.47;2.28;;;;;;;;;;5075193;28;20154;-75
2022/10/05 13:41:07;;;;;;;1.55;1.45;;;;;;;;;;5073021;28;20032;-74
2022/10/05 13:43:46;;;;;;;7.03;5.57;;;;;;;;;;5077961;28;20031;-72
2022/10/05 13:46:27;;;;;;;7.97;5.68;;;;;;;;;;5075280;28;20506;-75
2022/10/05 13:48:52;;;;;;;4.60;2.55;;;;;;;;;;5071449;28;20028;-72
2022/10/05 13:51:23;;;;;;;2.38;1.58;;;;;;;;;;5075262;28;20057;-74
2022/10/05 13:53:55;;;;;;;3.92;2.92;;;;;;;;;;5073028;28;20043;-72
2022/10/05 13:56:23;;;;;;;1.90;1.70;;;;;;;;;;5082665;28;20016;-78
2022/10/05 13:59:10;;;;;;;1.95;1.52;;;;;;;;;;5081481;28;20023;-78
2022/10/05 14:01:48;;;;;;;2.35;1.92;;;;;;;;;;5081637;28;20032;-77
2022/10/05 14:04:16;;;;;;;5.30;2.90;;;;;;;;;;5079187;28;20024;-72
2022/10/05 14:06:41;;;;;;;1.98;1.40;;;;;;;;;;5073783;28;20032;-72
2022/10/05 14:09:26;;;;;;;2.10;1.73;;;;;;;;;;5073175;28;20023;-74
2022/10/05 14:12:12;;;;;;;5.47;4.82;;;;;;;;;;5081593;28;20050;-73
2022/10/05 14:14:46;;;;;;;6.32;3.95;;;;;;;;;;5082389;28;20051;-75
2022/10/05 14:17:13;;;;;;;2.28;1.52;;;;;;;;;;5081787;28;20621;-74
2022/10/05 14:19:46;;;;;;;2.33;0.90;;;;;;;;;;5082900;28;20089;-74
2022/10/05 14:22:23;;;;;;;5.47;3.53;;;;;;;;;;5081817;28;20028;-75
2022/10/05 14:24:51;;;;;;;5.70;5.20;;;;;;;;;;5067733;28;20443;-76
2022/10/05 14:27:20;;;;;;;16.30;12.17;;;;;;;;;;5069188;28;20118;-73
2022/10/05 14:29:51;;;;;;;2.92;2.60;;;;;;;;;;5069268;28;20252;-75
2022/10/05 14:32:21;;;;;;;1.23;1.10;;;;;;;;;;5069010;28;20106;-76
2022/10/05 14:35:06;;;;;;;4.05;2.33;;;;;;;;;;5067450;28;20434;-75
2022/10/05 14:37:42;;;;;;;2.47;2.25;;;;;;;;;;5068410;28;20051;-74
2022/10/05 14:40:21;;;;;;;3.08;1.92;;;;;;;;;;5068438;28;20070;-74
2022/10/05 14:42:46;;;;;;;1.98;1.58;;;;;;;;;;5069731;28;20030;-73
2022/10/05 14:45:13;;;;;;;1.40;1.30;;;;;;;;;;5068084;28;20036;-74
2022/10/05 14:47:51;;;;;;;2.53;2.30;;;;;;;;;;5068392;28;20485;-73
2022/10/05 14:50:20;;;;;;;3.42;2.00;;;;;;;;;;5066826;28;20467;-75
2022/10/05 14:52:48;;;;;;;;;;;;;;;;;;5068523;28;20020;-73
2022/10/05 14:55:37;;;;;;;8.23;7.43;;;;;;;;;;5067114;28;20347;-74
2022/10/05 14:58:24;;;;;;;3.17;2.88;;;;;;;;;;5068383;28;20097;-76
2022/10/05 15:00:57;;;;;;;3.78;2.40;;;;;;;;;;5068487;28;20047;-74
2022/10/05 15:03:42;;;;;;;3.35;3.03;;;;;;;;;;5067875;28;20020;-74
2022/10/05 15:06:18;;;;;;;3.15;2.72;;;;;;;;;;5068479;28;20046;-74
2022/10/05 15:08:53;;;;;;;3.40;2.00;;;;;;;;;;5068110;28;20028;-74
2022/10/05 15:11:41;;;;;;;1.75;1.55;;;;;;;;;;5068169;28;20439;-74
2022/10/05 15:14:13;;;;;;;1.52;1.17;;;;;;;;;;5068270;28;20141;-73